sensor_id;sensor_type;location;lat;lon;timestamp;temperature;humidity
68977;SHT31;56029;52.568;13.588;2023-05-15T00:01:06;7.77;89.88
68977;SHT31;56029;52.568;13.588;2023-05-15T00:03:31;7.78;90.16
68977;SHT31;56029;52.568;13.588;2023-05-15T00:05:57;7.77;90.59
68977;SHT31;56029;52.568;13.588;2023-05-15T00:08:23;7.77;90.44
68977;SHT31;56029;52.568;13.588;2023-05-15T00:10:49;7.75;90.08
68977;SHT31;56029;52.568;13.588;2023-05-15T00:13:16;7.80;89.90
68977;SHT31;56029;52.568;13.588;2023-05-15T00:15:41;7.74;90.02
68977;SHT31;56029;52.568;13.588;2023-05-15T00:18:07;7.75;89.88
68977;SHT31;56029;52.568;13.588;2023-05-15T00:20:32;7.77;90.10
68977;SHT31;56029;52.568;13.588;2023-05-15T00:22:58;7.80;90.21
68977;SHT31;56029;52.568;13.588;2023-05-15T00:25:23;7.82;91.81
68977;SHT31;56029;52.568;13.588;2023-05-15T00:27:49;7.80;91.32
68977;SHT31;56029;52.568;13.588;2023-05-15T00:30:15;7.88;91.27
68977;SHT31;56029;52.568;13.588;2023-05-15T00:32:41;7.90;91.10
68977;SHT31;56029;52.568;13.588;2023-05-15T00:35:07;7.85;91.13
68977;SHT31;56029;52.568;13.588;2023-05-15T00:37:32;7.80;91.26
68977;SHT31;56029;52.568;13.588;2023-05-15T00:39:58;7.75;90.93
68977;SHT31;56029;52.568;13.588;2023-05-15T00:42:23;7.78;91.02
68977;SHT31;56029;52.568;13.588;2023-05-15T00:44:51;7.80;91.41
68977;SHT31;56029;52.568;13.588;2023-05-15T00:47:19;7.85;91.02
68977;SHT31;56029;52.568;13.588;2023-05-15T00:49:46;7.91;91.06
68977;SHT31;56029;52.568;13.588;2023-05-15T00:52:12;7.81;92.30
68977;SHT31;56029;52.568;13.588;2023-05-15T00:54:38;7.75;92.71
68977;SHT31;56029;52.568;13.588;2023-05-15T00:57:04;7.82;91.94
68977;SHT31;56029;52.568;13.588;2023-05-15T00:59:30;7.78;91.88
68977;SHT31;56029;52.568;13.588;2023-05-15T01:01:57;7.74;91.21
68977;SHT31;56029;52.568;13.588;2023-05-15T01:04:22;7.67;91.12
68977;SHT31;56029;52.568;13.588;2023-05-15T01:06:48;7.61;91.31
68977;SHT31;56029;52.568;13.588;2023-05-15T01:09:14;7.63;91.15
68977;SHT31;56029;52.568;13.588;2023-05-15T01:11:41;7.64;91.85
68977;SHT31;56029;52.568;13.588;2023-05-15T01:14:07;7.69;91.57
68977;SHT31;56029;52.568;13.588;2023-05-15T01:16:34;7.70;91.20
68977;SHT31;56029;52.568;13.588;2023-05-15T01:19:00;7.70;90.69
68977;SHT31;56029;52.568;13.588;2023-05-15T01:27:28;7.69;91.14
68977;SHT31;56029;52.568;13.588;2023-05-15T01:30:02;7.63;92.20
68977;SHT31;56029;52.568;13.588;2023-05-15T01:32:38;7.50;91.07
68977;SHT31;56029;52.568;13.588;2023-05-15T01:35:20;7.18;89.89
68977;SHT31;56029;52.568;13.588;2023-05-15T01:37:50;7.08;90.67
68977;SHT31;56029;52.568;13.588;2023-05-15T01:40:21;7.06;90.91
68977;SHT31;56029;52.568;13.588;2023-05-15T01:43:04;7.01;91.25
68977;SHT31;56029;52.568;13.588;2023-05-15T01:45:32;7.03;91.34
68977;SHT31;56029;52.568;13.588;2023-05-15T01:47:59;7.09;91.41
68977;SHT31;56029;52.568;13.588;2023-05-15T01:50:25;7.05;92.43
68977;SHT31;56029;52.568;13.588;2023-05-15T01:52:57;7.02;92.91
68977;SHT31;56029;52.568;13.588;2023-05-15T01:55:24;7.08;91.99
68977;SHT31;56029;52.568;13.588;2023-05-15T01:57:51;7.03;92.18
68977;SHT31;56029;52.568;13.588;2023-05-15T02:00:17;6.96;91.97
68977;SHT31;56029;52.568;13.588;2023-05-15T02:02:45;6.98;91.99
68977;SHT31;56029;52.568;13.588;2023-05-15T02:05:11;6.95;92.05
68977;SHT31;56029;52.568;13.588;2023-05-15T02:07:37;6.88;91.89
68977;SHT31;56029;52.568;13.588;2023-05-15T02:10:04;6.84;92.81
68977;SHT31;56029;52.568;13.588;2023-05-15T02:12:30;6.77;92.71
68977;SHT31;56029;52.568;13.588;2023-05-15T02:14:57;6.75;92.32
68977;SHT31;56029;52.568;13.588;2023-05-15T02:17:23;6.78;92.44
68977;SHT31;56029;52.568;13.588;2023-05-15T02:19:50;6.81;92.99
68977;SHT31;56029;52.568;13.588;2023-05-15T02:22:15;6.82;93.15
68977;SHT31;56029;52.568;13.588;2023-05-15T02:24:41;6.84;93.59
68977;SHT31;56029;52.568;13.588;2023-05-15T02:27:19;6.91;93.15
68977;SHT31;56029;52.568;13.588;2023-05-15T02:29:52;6.92;92.79
68977;SHT31;56029;52.568;13.588;2023-05-15T02:37:59;6.95;92.24
68977;SHT31;56029;52.568;13.588;2023-05-15T02:40:26;6.94;92.20
68977;SHT31;56029;52.568;13.588;2023-05-15T02:42:54;6.91;92.20
68977;SHT31;56029;52.568;13.588;2023-05-15T02:45:20;6.88;92.34
68977;SHT31;56029;52.568;13.588;2023-05-15T02:47:47;6.88;92.68
68977;SHT31;56029;52.568;13.588;2023-05-15T02:50:14;6.91;93.60
68977;SHT31;56029;52.568;13.588;2023-05-15T02:52:40;6.87;92.95
68977;SHT31;56029;52.568;13.588;2023-05-15T02:55:06;6.78;92.27
68977;SHT31;56029;52.568;13.588;2023-05-15T02:57:32;6.65;91.87
68977;SHT31;56029;52.568;13.588;2023-05-15T02:59:58;6.54;91.61
68977;SHT31;56029;52.568;13.588;2023-05-15T03:02:24;6.45;91.56
68977;SHT31;56029;52.568;13.588;2023-05-15T03:04:50;6.44;92.00
68977;SHT31;56029;52.568;13.588;2023-05-15T03:07:16;6.43;92.60
68977;SHT31;56029;52.568;13.588;2023-05-15T03:09:42;6.40;92.93
68977;SHT31;56029;52.568;13.588;2023-05-15T03:12:09;6.32;93.58
68977;SHT31;56029;52.568;13.588;2023-05-15T03:14:34;6.27;93.98
68977;SHT31;56029;52.568;13.588;2023-05-15T03:17:00;6.33;94.03
68977;SHT31;56029;52.568;13.588;2023-05-15T03:19:25;6.34;93.79
68977;SHT31;56029;52.568;13.588;2023-05-15T03:21:51;6.41;93.87
68977;SHT31;56029;52.568;13.588;2023-05-15T03:24:17;6.50;93.39
68977;SHT31;56029;52.568;13.588;2023-05-15T03:26:42;6.55;93.48
68977;SHT31;56029;52.568;13.588;2023-05-15T03:29:09;6.58;93.38
68977;SHT31;56029;52.568;13.588;2023-05-15T03:31:35;6.63;93.37
68977;SHT31;56029;52.568;13.588;2023-05-15T03:34:00;6.61;93.58
68977;SHT31;56029;52.568;13.588;2023-05-15T03:36:26;6.67;93.36
68977;SHT31;56029;52.568;13.588;2023-05-15T03:38:51;6.71;93.19
68977;SHT31;56029;52.568;13.588;2023-05-15T03:41:17;6.71;93.20
68977;SHT31;56029;52.568;13.588;2023-05-15T03:43:42;6.74;93.16
68977;SHT31;56029;52.568;13.588;2023-05-15T03:46:08;6.71;92.93
68977;SHT31;56029;52.568;13.588;2023-05-15T03:48:33;6.60;92.72
68977;SHT31;56029;52.568;13.588;2023-05-15T03:50:59;6.45;92.43
68977;SHT31;56029;52.568;13.588;2023-05-15T03:53:25;6.36;91.77
68977;SHT31;56029;52.568;13.588;2023-05-15T03:55:50;6.22;92.27
68977;SHT31;56029;52.568;13.588;2023-05-15T03:58:16;6.10;94.13
68977;SHT31;56029;52.568;13.588;2023-05-15T04:00:42;6.24;94.09
68977;SHT31;56029;52.568;13.588;2023-05-15T04:03:08;6.19;93.69
68977;SHT31;56029;52.568;13.588;2023-05-15T04:05:33;6.10;93.99
68977;SHT31;56029;52.568;13.588;2023-05-15T04:07:59;6.05;94.25
68977;SHT31;56029;52.568;13.588;2023-05-15T04:10:24;6.16;94.42
68977;SHT31;56029;52.568;13.588;2023-05-15T04:12:50;6.27;94.01
68977;SHT31;56029;52.568;13.588;2023-05-15T04:15:24;6.29;93.89
68977;SHT31;56029;52.568;13.588;2023-05-15T04:17:51;6.30;94.04
68977;SHT31;56029;52.568;13.588;2023-05-15T04:20:19;6.37;93.89
68977;SHT31;56029;52.568;13.588;2023-05-15T04:22:45;6.38;93.56
68977;SHT31;56029;52.568;13.588;2023-05-15T04:25:12;6.40;93.57
68977;SHT31;56029;52.568;13.588;2023-05-15T04:27:39;6.45;93.37
68977;SHT31;56029;52.568;13.588;2023-05-15T04:30:05;6.57;92.95
68977;SHT31;56029;52.568;13.588;2023-05-15T04:32:31;6.55;92.75
68977;SHT31;56029;52.568;13.588;2023-05-15T04:35:02;7.03;91.89
68977;SHT31;56029;52.568;13.588;2023-05-15T04:37:30;7.85;89.72
68977;SHT31;56029;52.568;13.588;2023-05-15T04:39:56;7.95;88.97
68977;SHT31;56029;52.568;13.588;2023-05-15T04:42:21;8.32;88.43
68977;SHT31;56029;52.568;13.588;2023-05-15T04:44:47;9.08;86.94
68977;SHT31;56029;52.568;13.588;2023-05-15T04:47:13;9.87;83.94
68977;SHT31;56029;52.568;13.588;2023-05-15T04:49:40;10.55;81.82
68977;SHT31;56029;52.568;13.588;2023-05-15T04:52:05;11.26;80.77
68977;SHT31;56029;52.568;13.588;2023-05-15T04:54:32;11.75;79.46
68977;SHT31;56029;52.568;13.588;2023-05-15T04:56:58;12.02;78.76
68977;SHT31;56029;52.568;13.588;2023-05-15T04:59:23;12.05;78.44
68977;SHT31;56029;52.568;13.588;2023-05-15T05:01:52;12.08;78.61
68977;SHT31;56029;52.568;13.588;2023-05-15T05:04:18;12.26;78.70
68977;SHT31;56029;52.568;13.588;2023-05-15T05:06:44;12.20;77.42
68977;SHT31;56029;52.568;13.588;2023-05-15T05:09:10;12.03;78.52
68977;SHT31;56029;52.568;13.588;2023-05-15T05:11:35;11.86;79.51
68977;SHT31;56029;52.568;13.588;2023-05-15T05:14:03;11.55;81.59
68977;SHT31;56029;52.568;13.588;2023-05-15T05:16:29;11.33;82.49
68977;SHT31;56029;52.568;13.588;2023-05-15T05:18:55;11.23;84.35
68977;SHT31;56029;52.568;13.588;2023-05-15T05:21:20;11.12;84.61
68977;SHT31;56029;52.568;13.588;2023-05-15T05:23:46;11.07;85.04
68977;SHT31;56029;52.568;13.588;2023-05-15T05:26:11;10.99;85.05
68977;SHT31;56029;52.568;13.588;2023-05-15T05:28:37;10.88;84.84
68977;SHT31;56029;52.568;13.588;2023-05-15T05:31:02;10.80;85.46
68977;SHT31;56029;52.568;13.588;2023-05-15T05:33:28;10.72;86.14
68977;SHT31;56029;52.568;13.588;2023-05-15T05:35:53;10.68;86.67
68977;SHT31;56029;52.568;13.588;2023-05-15T05:38:20;10.58;87.20
68977;SHT31;56029;52.568;13.588;2023-05-15T05:40:45;10.55;87.52
68977;SHT31;56029;52.568;13.588;2023-05-15T05:43:11;10.54;87.90
68977;SHT31;56029;52.568;13.588;2023-05-15T05:45:36;10.56;88.10
68977;SHT31;56029;52.568;13.588;2023-05-15T05:48:02;10.65;87.61
68977;SHT31;56029;52.568;13.588;2023-05-15T05:50:27;10.76;87.39
68977;SHT31;56029;52.568;13.588;2023-05-15T05:52:53;10.88;87.50
68977;SHT31;56029;52.568;13.588;2023-05-15T05:55:19;10.99;87.72
68977;SHT31;56029;52.568;13.588;2023-05-15T05:57:44;11.16;88.09
68977;SHT31;56029;52.568;13.588;2023-05-15T06:00:10;11.28;86.53
68977;SHT31;56029;52.568;13.588;2023-05-15T06:02:37;11.41;86.13
68977;SHT31;56029;52.568;13.588;2023-05-15T06:05:03;11.50;85.53
68977;SHT31;56029;52.568;13.588;2023-05-15T06:07:30;11.58;85.13
68977;SHT31;56029;52.568;13.588;2023-05-15T06:09:55;11.68;85.31
68977;SHT31;56029;52.568;13.588;2023-05-15T06:12:21;11.85;86.07
68977;SHT31;56029;52.568;13.588;2023-05-15T06:14:47;11.98;87.76
68977;SHT31;56029;52.568;13.588;2023-05-15T06:17:12;12.08;87.67
68977;SHT31;56029;52.568;13.588;2023-05-15T06:19:38;12.16;87.72
68977;SHT31;56029;52.568;13.588;2023-05-15T06:22:04;12.25;87.46
68977;SHT31;56029;52.568;13.588;2023-05-15T06:24:30;12.34;87.28
68977;SHT31;56029;52.568;13.588;2023-05-15T06:26:55;12.43;87.44
68977;SHT31;56029;52.568;13.588;2023-05-15T06:29:21;12.51;86.49
68977;SHT31;56029;52.568;13.588;2023-05-15T06:31:46;12.56;85.98
68977;SHT31;56029;52.568;13.588;2023-05-15T06:34:12;12.78;85.51
68977;SHT31;56029;52.568;13.588;2023-05-15T06:36:38;12.92;84.84
68977;SHT31;56029;52.568;13.588;2023-05-15T06:39:03;13.11;85.47
68977;SHT31;56029;52.568;13.588;2023-05-15T06:41:31;13.25;84.25
68977;SHT31;56029;52.568;13.588;2023-05-15T06:43:56;13.26;84.24
68977;SHT31;56029;52.568;13.588;2023-05-15T06:46:23;13.45;83.63
68977;SHT31;56029;52.568;13.588;2023-05-15T06:48:49;13.62;82.74
68977;SHT31;56029;52.568;13.588;2023-05-15T06:51:15;13.70;81.75
68977;SHT31;56029;52.568;13.588;2023-05-15T06:53:40;13.83;81.03
68977;SHT31;56029;52.568;13.588;2023-05-15T06:56:07;13.97;81.04
68977;SHT31;56029;52.568;13.588;2023-05-15T06:58:32;14.06;80.21
68977;SHT31;56029;52.568;13.588;2023-05-15T07:00:59;14.15;80.16
68977;SHT31;56029;52.568;13.588;2023-05-15T07:03:25;14.24;80.81
68977;SHT31;56029;52.568;13.588;2023-05-15T07:05:52;14.31;80.45
68977;SHT31;56029;52.568;13.588;2023-05-15T07:08:17;14.38;80.86
68977;SHT31;56029;52.568;13.588;2023-05-15T07:10:43;14.34;81.29
68977;SHT31;56029;52.568;13.588;2023-05-15T07:13:08;14.36;81.23
68977;SHT31;56029;52.568;13.588;2023-05-15T07:15:34;14.35;81.37
68977;SHT31;56029;52.568;13.588;2023-05-15T07:17:59;14.38;81.75
68977;SHT31;56029;52.568;13.588;2023-05-15T07:20:25;14.35;82.60
68977;SHT31;56029;52.568;13.588;2023-05-15T07:22:51;14.28;82.09
68977;SHT31;56029;52.568;13.588;2023-05-15T07:25:16;14.29;82.40
68977;SHT31;56029;52.568;13.588;2023-05-15T07:27:42;14.34;81.87
68977;SHT31;56029;52.568;13.588;2023-05-15T07:30:08;14.35;81.64
68977;SHT31;56029;52.568;13.588;2023-05-15T07:32:33;14.38;80.30
68977;SHT31;56029;52.568;13.588;2023-05-15T07:34:59;14.41;80.44
68977;SHT31;56029;52.568;13.588;2023-05-15T07:37:24;14.45;80.13
68977;SHT31;56029;52.568;13.588;2023-05-15T07:39:50;14.55;80.32
68977;SHT31;56029;52.568;13.588;2023-05-15T07:42:15;14.71;80.27
68977;SHT31;56029;52.568;13.588;2023-05-15T07:44:41;14.84;79.40
68977;SHT31;56029;52.568;13.588;2023-05-15T07:47:07;14.99;78.99
68977;SHT31;56029;52.568;13.588;2023-05-15T07:49:32;15.13;79.45
68977;SHT31;56029;52.568;13.588;2023-05-15T07:51:58;15.17;77.41
68977;SHT31;56029;52.568;13.588;2023-05-15T07:54:24;15.17;76.98
68977;SHT31;56029;52.568;13.588;2023-05-15T07:56:51;15.20;77.40
68977;SHT31;56029;52.568;13.588;2023-05-15T07:59:17;15.27;77.14
68977;SHT31;56029;52.568;13.588;2023-05-15T08:01:42;15.27;77.50
68977;SHT31;56029;52.568;13.588;2023-05-15T08:04:08;15.26;76.99
68977;SHT31;56029;52.568;13.588;2023-05-15T08:06:34;15.28;77.44
68977;SHT31;56029;52.568;13.588;2023-05-15T08:09:03;15.34;78.32
68977;SHT31;56029;52.568;13.588;2023-05-15T08:11:28;15.38;78.79
68977;SHT31;56029;52.568;13.588;2023-05-15T08:13:54;15.38;78.43
68977;SHT31;56029;52.568;13.588;2023-05-15T08:16:19;15.35;78.82
68977;SHT31;56029;52.568;13.588;2023-05-15T08:18:45;15.27;79.22
68977;SHT31;56029;52.568;13.588;2023-05-15T08:21:10;15.30;78.54
68977;SHT31;56029;52.568;13.588;2023-05-15T08:23:36;15.34;78.05
68977;SHT31;56029;52.568;13.588;2023-05-15T08:26:01;15.35;78.69
68977;SHT31;56029;52.568;13.588;2023-05-15T08:28:27;15.40;78.25
68977;SHT31;56029;52.568;13.588;2023-05-15T08:30:52;15.38;78.29
68977;SHT31;56029;52.568;13.588;2023-05-15T08:33:18;15.41;78.76
68977;SHT31;56029;52.568;13.588;2023-05-15T08:35:43;15.41;76.95
68977;SHT31;56029;52.568;13.588;2023-05-15T08:38:09;15.44;76.78
68977;SHT31;56029;52.568;13.588;2023-05-15T08:40:35;15.44;77.67
68977;SHT31;56029;52.568;13.588;2023-05-15T08:43:09;15.48;77.01
68977;SHT31;56029;52.568;13.588;2023-05-15T08:45:39;15.51;77.30
68977;SHT31;56029;52.568;13.588;2023-05-15T08:48:10;15.54;77.55
68977;SHT31;56029;52.568;13.588;2023-05-15T08:50:38;15.54;77.28
68977;SHT31;56029;52.568;13.588;2023-05-15T08:53:05;15.59;77.06
68977;SHT31;56029;52.568;13.588;2023-05-15T08:55:31;15.59;77.60
68977;SHT31;56029;52.568;13.588;2023-05-15T08:57:57;15.59;76.93
68977;SHT31;56029;52.568;13.588;2023-05-15T09:00:23;15.63;76.48
68977;SHT31;56029;52.568;13.588;2023-05-15T09:02:49;15.69;77.55
68977;SHT31;56029;52.568;13.588;2023-05-15T09:05:14;15.68;78.13
68977;SHT31;56029;52.568;13.588;2023-05-15T09:07:41;15.71;77.96
68977;SHT31;56029;52.568;13.588;2023-05-15T09:10:09;15.69;78.35
68977;SHT31;56029;52.568;13.588;2023-05-15T09:12:35;15.69;78.45
68977;SHT31;56029;52.568;13.588;2023-05-15T09:15:18;15.73;78.90
68977;SHT31;56029;52.568;13.588;2023-05-15T09:17:47;15.75;79.23
68977;SHT31;56029;52.568;13.588;2023-05-15T09:20:35;15.82;79.14
68977;SHT31;56029;52.568;13.588;2023-05-15T09:23:03;15.83;79.31
68977;SHT31;56029;52.568;13.588;2023-05-15T09:25:42;15.82;79.60
68977;SHT31;56029;52.568;13.588;2023-05-15T09:28:23;15.85;79.67
68977;SHT31;56029;52.568;13.588;2023-05-15T09:30:56;15.91;79.98
68977;SHT31;56029;52.568;13.588;2023-05-15T09:33:27;15.95;80.00
68977;SHT31;56029;52.568;13.588;2023-05-15T09:35:53;15.99;80.04
68977;SHT31;56029;52.568;13.588;2023-05-15T09:38:19;15.99;80.24
68977;SHT31;56029;52.568;13.588;2023-05-15T09:40:44;16.05;79.64
68977;SHT31;56029;52.568;13.588;2023-05-15T09:43:10;16.09;80.16
68977;SHT31;56029;52.568;13.588;2023-05-15T09:45:38;16.13;80.50
68977;SHT31;56029;52.568;13.588;2023-05-15T09:48:05;16.16;80.05
68977;SHT31;56029;52.568;13.588;2023-05-15T09:50:33;16.17;79.98
68977;SHT31;56029;52.568;13.588;2023-05-15T09:52:59;16.23;79.84
68977;SHT31;56029;52.568;13.588;2023-05-15T09:55:25;16.27;79.77
68977;SHT31;56029;52.568;13.588;2023-05-15T10:00:33;16.36;80.04
68977;SHT31;56029;52.568;13.588;2023-05-15T10:03:03;16.40;78.96
68977;SHT31;56029;52.568;13.588;2023-05-15T10:05:30;16.50;77.73
68977;SHT31;56029;52.568;13.588;2023-05-15T10:07:57;16.50;75.52
68977;SHT31;56029;52.568;13.588;2023-05-15T10:10:22;16.57;74.97
68977;SHT31;56029;52.568;13.588;2023-05-15T10:12:50;16.67;75.16
68977;SHT31;56029;52.568;13.588;2023-05-15T10:15:19;16.71;74.29
68977;SHT31;56029;52.568;13.588;2023-05-15T10:17:51;16.70;73.18
68977;SHT31;56029;52.568;13.588;2023-05-15T10:20:22;16.72;73.79
68977;SHT31;56029;52.568;13.588;2023-05-15T10:22:50;16.72;74.25
68977;SHT31;56029;52.568;13.588;2023-05-15T10:28:01;16.65;74.94
68977;SHT31;56029;52.568;13.588;2023-05-15T10:30:27;16.65;74.19
68977;SHT31;56029;52.568;13.588;2023-05-15T10:32:54;16.68;74.32
68977;SHT31;56029;52.568;13.588;2023-05-15T10:35:21;16.75;74.75
68977;SHT31;56029;52.568;13.588;2023-05-15T10:37:47;16.84;73.87
68977;SHT31;56029;52.568;13.588;2023-05-15T10:40:14;16.85;74.86
68977;SHT31;56029;52.568;13.588;2023-05-15T10:42:42;16.91;74.87
68977;SHT31;56029;52.568;13.588;2023-05-15T10:45:08;16.91;74.10
68977;SHT31;56029;52.568;13.588;2023-05-15T10:47:35;17.02;74.44
68977;SHT31;56029;52.568;13.588;2023-05-15T10:50:01;17.08;74.07
68977;SHT31;56029;52.568;13.588;2023-05-15T10:52:30;17.18;74.19
68977;SHT31;56029;52.568;13.588;2023-05-15T10:54:56;17.33;74.24
68977;SHT31;56029;52.568;13.588;2023-05-15T10:57:22;17.49;75.53
68977;SHT31;56029;52.568;13.588;2023-05-15T10:59:47;17.50;74.77
68977;SHT31;56029;52.568;13.588;2023-05-15T11:04:53;17.77;72.88
68977;SHT31;56029;52.568;13.588;2023-05-15T11:07:19;18.01;73.48
68977;SHT31;56029;52.568;13.588;2023-05-15T11:09:45;18.02;72.12
68977;SHT31;56029;52.568;13.588;2023-05-15T11:12:11;18.11;71.09
68977;SHT31;56029;52.568;13.588;2023-05-15T11:15:28;17.97;69.61
68977;SHT31;56029;52.568;13.588;2023-05-15T11:17:31;17.95;69.50
68977;SHT31;56029;52.568;13.588;2023-05-15T11:19:58;18.09;69.66
68977;SHT31;56029;52.568;13.588;2023-05-15T11:22:32;18.02;68.99
68977;SHT31;56029;52.568;13.588;2023-05-15T11:25:08;18.02;68.34
68977;SHT31;56029;52.568;13.588;2023-05-15T11:27:37;18.16;68.85
68977;SHT31;56029;52.568;13.588;2023-05-15T11:30:07;18.16;67.64
68977;SHT31;56029;52.568;13.588;2023-05-15T11:32:47;18.38;67.76
68977;SHT31;56029;52.568;13.588;2023-05-15T11:37:53;18.84;60.30
68977;SHT31;56029;52.568;13.588;2023-05-15T11:43:06;18.94;58.62
68977;SHT31;56029;52.568;13.588;2023-05-15T11:45:36;19.17;60.12
68977;SHT31;56029;52.568;13.588;2023-05-15T11:48:05;19.34;58.35
68977;SHT31;56029;52.568;13.588;2023-05-15T11:50:31;19.35;57.29
68977;SHT31;56029;52.568;13.588;2023-05-15T11:53:04;19.68;59.06
68977;SHT31;56029;52.568;13.588;2023-05-15T11:55:32;19.79;56.38
68977;SHT31;56029;52.568;13.588;2023-05-15T11:57:58;19.78;57.89
68977;SHT31;56029;52.568;13.588;2023-05-15T12:00:27;19.73;55.56
68977;SHT31;56029;52.568;13.588;2023-05-15T12:02:53;19.63;56.14
68977;SHT31;56029;52.568;13.588;2023-05-15T12:05:18;19.82;57.71
68977;SHT31;56029;52.568;13.588;2023-05-15T12:07:44;20.12;57.04
68977;SHT31;56029;52.568;13.588;2023-05-15T12:10:11;20.08;55.11
68977;SHT31;56029;52.568;13.588;2023-05-15T12:12:43;20.20;56.37
68977;SHT31;56029;52.568;13.588;2023-05-15T12:15:14;20.17;56.27
68977;SHT31;56029;52.568;13.588;2023-05-15T12:17:42;20.05;55.88
68977;SHT31;56029;52.568;13.588;2023-05-15T12:20:17;20.16;55.27
68977;SHT31;56029;52.568;13.588;2023-05-15T12:22:43;20.30;54.77
68977;SHT31;56029;52.568;13.588;2023-05-15T12:25:10;20.17;55.06
68977;SHT31;56029;52.568;13.588;2023-05-15T12:27:37;20.38;54.64
68977;SHT31;56029;52.568;13.588;2023-05-15T12:30:04;20.48;54.40
68977;SHT31;56029;52.568;13.588;2023-05-15T12:32:33;20.43;54.37
68977;SHT31;56029;52.568;13.588;2023-05-15T12:35:00;20.37;54.57
68977;SHT31;56029;52.568;13.588;2023-05-15T12:37:26;20.30;54.80
68977;SHT31;56029;52.568;13.588;2023-05-15T12:39:59;20.37;53.12
68977;SHT31;56029;52.568;13.588;2023-05-15T12:42:25;20.30;53.31
68977;SHT31;56029;52.568;13.588;2023-05-15T12:44:51;20.26;53.78
68977;SHT31;56029;52.568;13.588;2023-05-15T12:47:22;20.38;53.39
68977;SHT31;56029;52.568;13.588;2023-05-15T12:49:48;20.08;53.45
68977;SHT31;56029;52.568;13.588;2023-05-15T12:52:14;19.85;54.23
68977;SHT31;56029;52.568;13.588;2023-05-15T12:54:40;19.81;54.55
68977;SHT31;56029;52.568;13.588;2023-05-15T12:57:10;20.00;55.37
68977;SHT31;56029;52.568;13.588;2023-05-15T12:59:37;19.94;54.34
68977;SHT31;56029;52.568;13.588;2023-05-15T13:02:04;20.05;54.44
68977;SHT31;56029;52.568;13.588;2023-05-15T13:04:32;20.09;57.49
68977;SHT31;56029;52.568;13.588;2023-05-15T13:06:58;20.09;58.61
68977;SHT31;56029;52.568;13.588;2023-05-15T13:09:24;20.05;58.13
68977;SHT31;56029;52.568;13.588;2023-05-15T13:11:54;19.93;57.85
68977;SHT31;56029;52.568;13.588;2023-05-15T13:14:20;19.82;58.90
68977;SHT31;56029;52.568;13.588;2023-05-15T13:16:47;19.17;60.87
68977;SHT31;56029;52.568;13.588;2023-05-15T13:19:12;18.04;65.85
68977;SHT31;56029;52.568;13.588;2023-05-15T13:21:38;17.16;67.92
68977;SHT31;56029;52.568;13.588;2023-05-15T13:24:04;16.70;67.39
68977;SHT31;56029;52.568;13.588;2023-05-15T13:26:30;16.02;68.87
68977;SHT31;56029;52.568;13.588;2023-05-15T13:28:55;15.83;70.35
68977;SHT31;56029;52.568;13.588;2023-05-15T13:31:21;15.51;72.07
68977;SHT31;56029;52.568;13.588;2023-05-15T13:33:47;15.30;73.04
68977;SHT31;56029;52.568;13.588;2023-05-15T13:36:13;14.82;77.04
68977;SHT31;56029;52.568;13.588;2023-05-15T13:38:38;14.41;79.09
68977;SHT31;56029;52.568;13.588;2023-05-15T13:41:04;14.07;83.58
68977;SHT31;56029;52.568;13.588;2023-05-15T13:43:30;13.49;87.51
68977;SHT31;56029;52.568;13.588;2023-05-15T13:45:56;13.12;89.89
68977;SHT31;56029;52.568;13.588;2023-05-15T13:48:21;12.80;91.40
68977;SHT31;56029;52.568;13.588;2023-05-15T13:50:47;12.80;92.15
68977;SHT31;56029;52.568;13.588;2023-05-15T13:53:12;12.81;93.08
68977;SHT31;56029;52.568;13.588;2023-05-15T13:55:44;12.80;92.64
68977;SHT31;56029;52.568;13.588;2023-05-15T13:58:13;12.80;92.72
68977;SHT31;56029;52.568;13.588;2023-05-15T14:00:42;12.78;94.31
68977;SHT31;56029;52.568;13.588;2023-05-15T14:03:07;12.71;94.19
68977;SHT31;56029;52.568;13.588;2023-05-15T14:05:33;12.68;95.07
68977;SHT31;56029;52.568;13.588;2023-05-15T14:07:59;12.71;95.62
68977;SHT31;56029;52.568;13.588;2023-05-15T14:10:25;12.80;95.28
68977;SHT31;56029;52.568;13.588;2023-05-15T14:12:51;12.80;95.75
68977;SHT31;56029;52.568;13.588;2023-05-15T14:15:17;12.85;95.07
68977;SHT31;56029;52.568;13.588;2023-05-15T14:17:42;12.87;95.05
68977;SHT31;56029;52.568;13.588;2023-05-15T14:20:09;12.74;95.62
68977;SHT31;56029;52.568;13.588;2023-05-15T14:22:36;12.87;96.54
68977;SHT31;56029;52.568;13.588;2023-05-15T14:25:02;12.77;95.95
68977;SHT31;56029;52.568;13.588;2023-05-15T14:27:28;12.92;96.74
68977;SHT31;56029;52.568;13.588;2023-05-15T14:29:54;12.97;96.29
68977;SHT31;56029;52.568;13.588;2023-05-15T14:32:21;13.05;96.06
68977;SHT31;56029;52.568;13.588;2023-05-15T14:34:47;13.18;95.26
68977;SHT31;56029;52.568;13.588;2023-05-15T14:37:13;13.42;96.15
68977;SHT31;56029;52.568;13.588;2023-05-15T14:39:39;13.56;96.96
68977;SHT31;56029;52.568;13.588;2023-05-15T14:42:04;13.53;96.47
68977;SHT31;56029;52.568;13.588;2023-05-15T14:44:31;13.60;94.43
68977;SHT31;56029;52.568;13.588;2023-05-15T14:47:10;13.73;94.65
68977;SHT31;56029;52.568;13.588;2023-05-15T14:49:39;13.63;96.62
68977;SHT31;56029;52.568;13.588;2023-05-15T14:52:07;13.76;95.48
68977;SHT31;56029;52.568;13.588;2023-05-15T14:54:33;13.87;95.17
68977;SHT31;56029;52.568;13.588;2023-05-15T14:57:00;13.62;94.32
68977;SHT31;56029;52.568;13.588;2023-05-15T14:59:26;13.65;96.22
68977;SHT31;56029;52.568;13.588;2023-05-15T15:01:52;13.66;94.67
68977;SHT31;56029;52.568;13.588;2023-05-15T15:04:18;13.86;94.01
68977;SHT31;56029;52.568;13.588;2023-05-15T15:06:43;13.84;92.08
68977;SHT31;56029;52.568;13.588;2023-05-15T15:09:09;13.87;93.51
68977;SHT31;56029;52.568;13.588;2023-05-15T15:11:34;13.87;94.55
68977;SHT31;56029;52.568;13.588;2023-05-15T15:14:01;13.83;94.58
68977;SHT31;56029;52.568;13.588;2023-05-15T15:16:27;13.84;94.52
68977;SHT31;56029;52.568;13.588;2023-05-15T15:18:53;13.84;94.14
68977;SHT31;56029;52.568;13.588;2023-05-15T15:21:18;13.74;94.22
68977;SHT31;56029;52.568;13.588;2023-05-15T15:23:44;13.77;94.64
68977;SHT31;56029;52.568;13.588;2023-05-15T15:26:10;13.78;94.54
68977;SHT31;56029;52.568;13.588;2023-05-15T15:28:36;13.83;94.16
68977;SHT31;56029;52.568;13.588;2023-05-15T15:31:01;13.65;93.66
68977;SHT31;56029;52.568;13.588;2023-05-15T15:33:27;13.78;94.59
68977;SHT31;56029;52.568;13.588;2023-05-15T15:35:54;14.00;95.07
68977;SHT31;56029;52.568;13.588;2023-05-15T15:38:19;13.94;94.16
68977;SHT31;56029;52.568;13.588;2023-05-15T15:40:45;14.08;93.85
68977;SHT31;56029;52.568;13.588;2023-05-15T15:43:11;14.14;93.87